sensor_id;sensor_type;location;lat;lon;timestamp;P1;durP1;ratioP1;P2;durP2;ratioP2
42704;SDS011;28342;42.594;23.414;2022-09-17T00:01:03;5.72;;;2.85;;
42704;SDS011;28342;42.594;23.414;2022-09-17T00:03:29;4.07;;;2.55;;
42704;SDS011;28342;42.594;23.414;2022-09-17T00:06:02;7.22;;;2.88;;
42704;SDS011;28342;42.594;23.414;2022-09-17T00:08:33;6.30;;;3.00;;
42704;SDS011;28342;42.594;23.414;2022-09-17T00:11:14;7.85;;;2.47;;
42704;SDS011;28342;42.594;23.414;2022-09-17T00:13:47;7.82;;;3.22;;
42704;SDS011;28342;42.594;23.414;2022-09-17T00:16:15;6.13;;;2.40;;
42704;SDS011;28342;42.594;23.414;2022-09-17T00:18:46;8.85;;;3.05;;
42704;SDS011;28342;42.594;23.414;2022-09-17T00:21:15;4.78;;;2.03;;
42704;SDS011;28342;42.594;23.414;2022-09-17T00:23:41;4.85;;;2.63;;
42704;SDS011;28342;42.594;23.414;2022-09-17T00:26:07;7.53;;;2.60;;
42704;SDS011;28342;42.594;23.414;2022-09-17T00:28:33;6.15;;;2.42;;
42704;SDS011;28342;42.594;23.414;2022-09-17T00:30:58;10.35;;;2.70;;
42704;SDS011;28342;42.594;23.414;2022-09-17T00:33:23;4.05;;;2.40;;
42704;SDS011;28342;42.594;23.414;2022-09-17T00:35:59;34.47;;;3.97;;
42704;SDS011;28342;42.594;23.414;2022-09-17T00:38:26;9.98;;;2.25;;
42704;SDS011;28342;42.594;23.414;2022-09-17T00:40:52;10.95;;;2.60;;
42704;SDS011;28342;42.594;23.414;2022-09-17T00:46:44;4.35;;;3.10;;
42704;SDS011;28342;42.594;23.414;2022-09-17T00:49:11;5.35;;;2.60;;
42704;SDS011;28342;42.594;23.414;2022-09-17T00:52:04;5.10;;;2.45;;
42704;SDS011;28342;42.594;23.414;2022-09-17T00:54:32;6.22;;;3.33;;
42704;SDS011;28342;42.594;23.414;2022-09-17T00:57:00;4.65;;;2.60;;
42704;SDS011;28342;42.594;23.414;2022-09-17T00:59:27;7.05;;;2.70;;
42704;SDS011;28342;42.594;23.414;2022-09-17T01:01:53;7.88;;;2.90;;
42704;SDS011;28342;42.594;23.414;2022-09-17T01:04:22;7.05;;;3.05;;
42704;SDS011;28342;42.594;23.414;2022-09-17T01:12:14;6.78;;;2.85;;
42704;SDS011;28342;42.594;23.414;2022-09-17T01:17:34;4.93;;;3.30;;
42704;SDS011;28342;42.594;23.414;2022-09-17T01:30:33;9.68;;;4.68;;
42704;SDS011;28342;42.594;23.414;2022-09-17T01:35:50;8.48;;;4.15;;
42704;SDS011;28342;42.594;23.414;2022-09-17T01:38:31;12.85;;;4.28;;
42704;SDS011;28342;42.594;23.414;2022-09-17T01:41:23;12.23;;;4.80;;
42704;SDS011;28342;42.594;23.414;2022-09-17T01:44:07;10.52;;;4.38;;
42704;SDS011;28342;42.594;23.414;2022-09-17T01:46:40;11.60;;;4.75;;
42704;SDS011;28342;42.594;23.414;2022-09-17T01:49:10;8.50;;;3.72;;
42704;SDS011;28342;42.594;23.414;2022-09-17T01:51:39;8.07;;;3.88;;
42704;SDS011;28342;42.594;23.414;2022-09-17T01:59:20;12.00;;;4.15;;
42704;SDS011;28342;42.594;23.414;2022-09-17T02:01:52;10.00;;;3.78;;
42704;SDS011;28342;42.594;23.414;2022-09-17T02:04:24;11.30;;;4.43;;
42704;SDS011;28342;42.594;23.414;2022-09-17T02:06:55;9.40;;;3.80;;
42704;SDS011;28342;42.594;23.414;2022-09-17T02:09:30;10.68;;;4.35;;
42704;SDS011;28342;42.594;23.414;2022-09-17T02:14:51;12.77;;;3.25;;
42704;SDS011;28342;42.594;23.414;2022-09-17T02:17:20;7.78;;;3.45;;
42704;SDS011;28342;42.594;23.414;2022-09-17T02:19:48;11.48;;;5.00;;
42704;SDS011;28342;42.594;23.414;2022-09-17T02:25:07;11.68;;;5.97;;
42704;SDS011;28342;42.594;23.414;2022-09-17T02:30:21;11.82;;;6.25;;
42704;SDS011;28342;42.594;23.414;2022-09-17T02:32:47;13.00;;;5.60;;
42704;SDS011;28342;42.594;23.414;2022-09-17T02:35:13;13.05;;;5.25;;
42704;SDS011;28342;42.594;23.414;2022-09-17T02:37:39;14.90;;;5.78;;
42704;SDS011;28342;42.594;23.414;2022-09-17T02:40:05;11.70;;;5.45;;
42704;SDS011;28342;42.594;23.414;2022-09-17T02:48:32;13.93;;;3.38;;
42704;SDS011;28342;42.594;23.414;2022-09-17T02:54:04;12.85;;;3.35;;
42704;SDS011;28342;42.594;23.414;2022-09-17T02:56:45;23.90;;;3.20;;
42704;SDS011;28342;42.594;23.414;2022-09-17T03:02:32;10.85;;;4.68;;
42704;SDS011;28342;42.594;23.414;2022-09-17T03:05:05;9.85;;;4.82;;
42704;SDS011;28342;42.594;23.414;2022-09-17T03:07:32;14.07;;;4.82;;
42704;SDS011;28342;42.594;23.414;2022-09-17T03:09:58;18.15;;;4.45;;
42704;SDS011;28342;42.594;23.414;2022-09-17T03:12:24;9.45;;;4.72;;
42704;SDS011;28342;42.594;23.414;2022-09-17T03:14:50;13.52;;;5.20;;
42704;SDS011;28342;42.594;23.414;2022-09-17T03:17:16;7.28;;;4.93;;
42704;SDS011;28342;42.594;23.414;2022-09-17T03:19:41;14.32;;;4.82;;
42704;SDS011;28342;42.594;23.414;2022-09-17T03:22:07;10.30;;;4.38;;
42704;SDS011;28342;42.594;23.414;2022-09-17T03:24:32;9.48;;;3.85;;
42704;SDS011;28342;42.594;23.414;2022-09-17T03:26:57;19.63;;;3.97;;
42704;SDS011;28342;42.594;23.414;2022-09-17T03:29:23;11.43;;;3.08;;
42704;SDS011;28342;42.594;23.414;2022-09-17T03:31:48;8.43;;;2.50;;
42704;SDS011;28342;42.594;23.414;2022-09-17T03:34:14;12.23;;;2.42;;
42704;SDS011;28342;42.594;23.414;2022-09-17T03:36:39;11.55;;;3.00;;
42704;SDS011;28342;42.594;23.414;2022-09-17T03:39:04;8.95;;;3.38;;
42704;SDS011;28342;42.594;23.414;2022-09-17T03:41:30;9.60;;;3.65;;
42704;SDS011;28342;42.594;23.414;2022-09-17T03:43:55;9.68;;;3.95;;
42704;SDS011;28342;42.594;23.414;2022-09-17T03:46:21;14.95;;;4.10;;
42704;SDS011;28342;42.594;23.414;2022-09-17T03:48:46;7.05;;;3.47;;
42704;SDS011;28342;42.594;23.414;2022-09-17T03:51:11;12.77;;;3.03;;
42704;SDS011;28342;42.594;23.414;2022-09-17T03:53:37;11.05;;;2.72;;
42704;SDS011;28342;42.594;23.414;2022-09-17T03:56:04;13.38;;;2.90;;
42704;SDS011;28342;42.594;23.414;2022-09-17T03:58:31;8.32;;;2.42;;
42704;SDS011;28342;42.594;23.414;2022-09-17T04:00:56;11.25;;;2.88;;
42704;SDS011;28342;42.594;23.414;2022-09-17T04:03:22;9.90;;;2.88;;
42704;SDS011;28342;42.594;23.414;2022-09-17T04:06:06;11.93;;;2.95;;
42704;SDS011;28342;42.594;23.414;2022-09-17T04:08:32;12.65;;;3.25;;
42704;SDS011;28342;42.594;23.414;2022-09-17T04:10:58;14.10;;;2.80;;
42704;SDS011;28342;42.594;23.414;2022-09-17T04:13:23;9.77;;;2.30;;
42704;SDS011;28342;42.594;23.414;2022-09-17T04:15:48;8.15;;;2.75;;
42704;SDS011;28342;42.594;23.414;2022-09-17T04:18:14;8.95;;;3.05;;
42704;SDS011;28342;42.594;23.414;2022-09-17T04:20:39;10.65;;;3.30;;
42704;SDS011;28342;42.594;23.414;2022-09-17T04:23:05;9.00;;;3.25;;
42704;SDS011;28342;42.594;23.414;2022-09-17T04:25:33;9.68;;;3.13;;
42704;SDS011;28342;42.594;23.414;2022-09-17T04:27:59;15.45;;;6.28;;
42704;SDS011;28342;42.594;23.414;2022-09-17T04:30:24;7.65;;;2.95;;
42704;SDS011;28342;42.594;23.414;2022-09-17T04:32:49;8.77;;;3.13;;
42704;SDS011;28342;42.594;23.414;2022-09-17T04:35:15;8.88;;;3.20;;
42704;SDS011;28342;42.594;23.414;2022-09-17T04:37:41;11.95;;;2.97;;
42704;SDS011;28342;42.594;23.414;2022-09-17T04:40:06;10.20;;;3.15;;
42704;SDS011;28342;42.594;23.414;2022-09-17T04:42:32;7.68;;;3.28;;
42704;SDS011;28342;42.594;23.414;2022-09-17T04:44:58;7.45;;;2.80;;
42704;SDS011;28342;42.594;23.414;2022-09-17T04:47:23;6.90;;;3.33;;
42704;SDS011;28342;42.594;23.414;2022-09-17T04:49:49;12.45;;;3.10;;
42704;SDS011;28342;42.594;23.414;2022-09-17T04:52:14;11.68;;;3.13;;
42704;SDS011;28342;42.594;23.414;2022-09-17T04:54:40;9.38;;;2.70;;
42704;SDS011;28342;42.594;23.414;2022-09-17T04:57:05;7.82;;;2.90;;
42704;SDS011;28342;42.594;23.414;2022-09-17T04:59:30;5.75;;;2.72;;
42704;SDS011;28342;42.594;23.414;2022-09-17T05:01:56;12.48;;;3.55;;
42704;SDS011;28342;42.594;23.414;2022-09-17T05:04:21;9.30;;;3.10;;
42704;SDS011;28342;42.594;23.414;2022-09-17T05:06:47;11.68;;;3.40;;
42704;SDS011;28342;42.594;23.414;2022-09-17T05:09:12;6.68;;;3.10;;
42704;SDS011;28342;42.594;23.414;2022-09-17T05:11:38;7.03;;;3.20;;
42704;SDS011;28342;42.594;23.414;2022-09-17T05:14:04;10.85;;;3.60;;
42704;SDS011;28342;42.594;23.414;2022-09-17T05:16:29;11.05;;;3.78;;
42704;SDS011;28342;42.594;23.414;2022-09-17T05:18:55;7.22;;;3.50;;
42704;SDS011;28342;42.594;23.414;2022-09-17T05:21:21;7.82;;;3.60;;
42704;SDS011;28342;42.594;23.414;2022-09-17T05:23:47;10.98;;;3.42;;
42704;SDS011;28342;42.594;23.414;2022-09-17T05:26:13;9.27;;;3.53;;
42704;SDS011;28342;42.594;23.414;2022-09-17T05:28:38;12.93;;;4.20;;
42704;SDS011;28342;42.594;23.414;2022-09-17T05:31:04;11.60;;;4.60;;
42704;SDS011;28342;42.594;23.414;2022-09-17T05:33:29;9.85;;;3.72;;
42704;SDS011;28342;42.594;23.414;2022-09-17T05:35:55;10.20;;;3.90;;
42704;SDS011;28342;42.594;23.414;2022-09-17T05:38:20;13.13;;;4.20;;
42704;SDS011;28342;42.594;23.414;2022-09-17T05:40:46;14.00;;;4.07;;
42704;SDS011;28342;42.594;23.414;2022-09-17T05:43:13;11.20;;;4.22;;
42704;SDS011;28342;42.594;23.414;2022-09-17T05:45:38;8.65;;;3.65;;
42704;SDS011;28342;42.594;23.414;2022-09-17T05:48:05;9.98;;;4.43;;
42704;SDS011;28342;42.594;23.414;2022-09-17T05:50:34;8.18;;;3.65;;
42704;SDS011;28342;42.594;23.414;2022-09-17T05:53:03;9.57;;;3.65;;
42704;SDS011;28342;42.594;23.414;2022-09-17T05:55:30;13.15;;;3.08;;
42704;SDS011;28342;42.594;23.414;2022-09-17T05:57:55;11.07;;;3.90;;
42704;SDS011;28342;42.594;23.414;2022-09-17T06:00:21;8.85;;;4.00;;
42704;SDS011;28342;42.594;23.414;2022-09-17T06:02:46;10.05;;;3.70;;
42704;SDS011;28342;42.594;23.414;2022-09-17T06:05:18;18.33;;;10.93;;
42704;SDS011;28342;42.594;23.414;2022-09-17T06:07:44;12.65;;;4.03;;
42704;SDS011;28342;42.594;23.414;2022-09-17T06:10:09;13.98;;;3.75;;
42704;SDS011;28342;42.594;23.414;2022-09-17T06:12:34;14.02;;;4.00;;
42704;SDS011;28342;42.594;23.414;2022-09-17T06:15:00;12.15;;;3.70;;
42704;SDS011;28342;42.594;23.414;2022-09-17T06:17:26;7.97;;;3.97;;
42704;SDS011;28342;42.594;23.414;2022-09-17T06:19:52;15.05;;;4.40;;
42704;SDS011;28342;42.594;23.414;2022-09-17T06:22:18;6.70;;;3.10;;
42704;SDS011;28342;42.594;23.414;2022-09-17T06:24:44;12.20;;;4.20;;
42704;SDS011;28342;42.594;23.414;2022-09-17T06:27:09;14.27;;;4.10;;
42704;SDS011;28342;42.594;23.414;2022-09-17T06:29:35;12.10;;;3.85;;
42704;SDS011;28342;42.594;23.414;2022-09-17T06:32:00;13.52;;;4.78;;
42704;SDS011;28342;42.594;23.414;2022-09-17T06:34:26;10.82;;;4.80;;
42704;SDS011;28342;42.594;23.414;2022-09-17T06:36:52;11.90;;;4.80;;
42704;SDS011;28342;42.594;23.414;2022-09-17T06:39:17;10.27;;;4.90;;
42704;SDS011;28342;42.594;23.414;2022-09-17T06:41:43;10.30;;;5.00;;
42704;SDS011;28342;42.594;23.414;2022-09-17T06:44:08;9.38;;;5.70;;
42704;SDS011;28342;42.594;23.414;2022-09-17T06:46:34;12.05;;;5.50;;
42704;SDS011;28342;42.594;23.414;2022-09-17T06:49:00;11.68;;;5.32;;
42704;SDS011;28342;42.594;23.414;2022-09-17T06:51:25;12.00;;;5.43;;
42704;SDS011;28342;42.594;23.414;2022-09-17T06:53:50;12.00;;;5.03;;
42704;SDS011;28342;42.594;23.414;2022-09-17T06:56:16;7.97;;;4.97;;
42704;SDS011;28342;42.594;23.414;2022-09-17T06:58:41;8.48;;;4.40;;
42704;SDS011;28342;42.594;23.414;2022-09-17T07:01:08;12.32;;;5.05;;
42704;SDS011;28342;42.594;23.414;2022-09-17T07:03:35;9.52;;;5.00;;
42704;SDS011;28342;42.594;23.414;2022-09-17T07:06:01;10.40;;;4.30;;
42704;SDS011;28342;42.594;23.414;2022-09-17T07:08:27;10.95;;;4.63;;
42704;SDS011;28342;42.594;23.414;2022-09-17T07:10:55;13.07;;;5.05;;
42704;SDS011;28342;42.594;23.414;2022-09-17T07:13:22;11.25;;;5.13;;
42704;SDS011;28342;42.594;23.414;2022-09-17T07:15:54;9.68;;;4.60;;
42704;SDS011;28342;42.594;23.414;2022-09-17T07:18:21;11.50;;;4.70;;
42704;SDS011;28342;42.594;23.414;2022-09-17T07:20:54;13.43;;;4.18;;
42704;SDS011;28342;42.594;23.414;2022-09-17T07:23:21;13.73;;;4.57;;
42704;SDS011;28342;42.594;23.414;2022-09-17T07:25:55;11.30;;;4.40;;
42704;SDS011;28342;42.594;23.414;2022-09-17T07:28:22;7.50;;;4.20;;
42704;SDS011;28342;42.594;23.414;2022-09-17T07:30:48;11.48;;;4.07;;
42704;SDS011;28342;42.594;23.414;2022-09-17T07:33:15;8.68;;;4.15;;
42704;SDS011;28342;42.594;23.414;2022-09-17T07:35:51;15.35;;;4.38;;
42704;SDS011;28342;42.594;23.414;2022-09-17T07:38:20;12.75;;;4.03;;
42704;SDS011;28342;42.594;23.414;2022-09-17T07:40:59;11.85;;;3.33;;
42704;SDS011;28342;42.594;23.414;2022-09-17T07:43:27;7.07;;;3.10;;
42704;SDS011;28342;42.594;23.414;2022-09-17T07:45:55;11.30;;;2.83;;
42704;SDS011;28342;42.594;23.414;2022-09-17T07:48:22;10.88;;;3.17;;
42704;SDS011;28342;42.594;23.414;2022-09-17T07:50:48;8.50;;;2.67;;
42704;SDS011;28342;42.594;23.414;2022-09-17T07:53:14;9.32;;;3.10;;
42704;SDS011;28342;42.594;23.414;2022-09-17T07:55:47;8.52;;;2.95;;
42704;SDS011;28342;42.594;23.414;2022-09-17T07:58:16;18.38;;;3.83;;
42704;SDS011;28342;42.594;23.414;2022-09-17T08:00:41;9.85;;;2.55;;
42704;SDS011;28342;42.594;23.414;2022-09-17T08:03:07;11.00;;;2.97;;
42704;SDS011;28342;42.594;23.414;2022-09-17T08:05:32;6.40;;;1.95;;
42704;SDS011;28342;42.594;23.414;2022-09-17T08:07:58;3.75;;;1.77;;
42704;SDS011;28342;42.594;23.414;2022-09-17T08:10:24;6.40;;;1.90;;
42704;SDS011;28342;42.594;23.414;2022-09-17T08:12:53;4.18;;;2.33;;
42704;SDS011;28342;42.594;23.414;2022-09-17T08:15:21;10.57;;;2.83;;
42704;SDS011;28342;42.594;23.414;2022-09-17T08:17:48;6.03;;;2.67;;
42704;SDS011;28342;42.594;23.414;2022-09-17T08:20:13;5.50;;;2.47;;
42704;SDS011;28342;42.594;23.414;2022-09-17T08:22:40;8.23;;;2.72;;
42704;SDS011;28342;42.594;23.414;2022-09-17T08:25:06;12.25;;;2.75;;
42704;SDS011;28342;42.594;23.414;2022-09-17T08:27:33;9.40;;;2.30;;
42704;SDS011;28342;42.594;23.414;2022-09-17T08:29:58;11.30;;;2.40;;
42704;SDS011;28342;42.594;23.414;2022-09-17T08:32:24;4.78;;;1.90;;
42704;SDS011;28342;42.594;23.414;2022-09-17T08:34:49;10.43;;;2.30;;
42704;SDS011;28342;42.594;23.414;2022-09-17T08:37:15;5.15;;;1.70;;
42704;SDS011;28342;42.594;23.414;2022-09-17T08:39:40;5.32;;;1.77;;
42704;SDS011;28342;42.594;23.414;2022-09-17T08:42:08;8.45;;;2.05;;
42704;SDS011;28342;42.594;23.414;2022-09-17T08:44:43;8.98;;;2.13;;
42704;SDS011;28342;42.594;23.414;2022-09-17T08:47:25;4.90;;;1.80;;
42704;SDS011;28342;42.594;23.414;2022-09-17T08:49:56;4.75;;;1.67;;
42704;SDS011;28342;42.594;23.414;2022-09-17T08:52:37;7.82;;;1.52;;
42704;SDS011;28342;42.594;23.414;2022-09-17T08:55:08;5.35;;;1.70;;
42704;SDS011;28342;42.594;23.414;2022-09-17T08:57:51;5.60;;;1.65;;
42704;SDS011;28342;42.594;23.414;2022-09-17T09:00:57;8.02;;;2.00;;
42704;SDS011;28342;42.594;23.414;2022-09-17T09:04:03;6.05;;;1.70;;
42704;SDS011;28342;42.594;23.414;2022-09-17T09:06:47;3.05;;;1.55;;
42704;SDS011;28342;42.594;23.414;2022-09-17T09:09:16;5.95;;;1.98;;
42704;SDS011;28342;42.594;23.414;2022-09-17T09:11:58;4.20;;;1.60;;
42704;SDS011;28342;42.594;23.414;2022-09-17T09:14:30;4.05;;;1.70;;
42704;SDS011;28342;42.594;23.414;2022-09-17T09:17:16;7.57;;;2.20;;
42704;SDS011;28342;42.594;23.414;2022-09-17T09:19:45;7.85;;;2.00;;
42704;SDS011;28342;42.594;23.414;2022-09-17T09:22:36;7.18;;;1.90;;
42704;SDS011;28342;42.594;23.414;2022-09-17T09:25:30;6.13;;;2.00;;
42704;SDS011;28342;42.594;23.414;2022-09-17T09:28:13;7.28;;;2.28;;
42704;SDS011;28342;42.594;23.414;2022-09-17T09:31:02;7.47;;;2.25;;
42704;SDS011;28342;42.594;23.414;2022-09-17T09:33:32;7.18;;;2.30;;
42704;SDS011;28342;42.594;23.414;2022-09-17T09:36:04;6.15;;;2.25;;
42704;SDS011;28342;42.594;23.414;2022-09-17T09:38:37;6.25;;;2.25;;
42704;SDS011;28342;42.594;23.414;2022-09-17T09:41:09;8.70;;;2.30;;
42704;SDS011;28342;42.594;23.414;2022-09-17T09:43:43;5.93;;;2.70;;
42704;SDS011;28342;42.594;23.414;2022-09-17T09:52:17;18.00;;;9.40;;
42704;SDS011;28342;42.594;23.414;2022-09-17T10:02:52;12.23;;;4.57;;
42704;SDS011;28342;42.594;23.414;2022-09-17T10:05:21;12.07;;;3.95;;
42704;SDS011;28342;42.594;23.414;2022-09-17T10:07:46;12.38;;;4.35;;
42704;SDS011;28342;42.594;23.414;2022-09-17T10:10:12;9.63;;;3.67;;
42704;SDS011;28342;42.594;23.414;2022-09-17T10:12:37;10.43;;;3.90;;
42704;SDS011;28342;42.594;23.414;2022-09-17T10:17:48;13.65;;;3.97;;
42704;SDS011;28342;42.594;23.414;2022-09-17T10:20:33;9.45;;;4.00;;
42704;SDS011;28342;42.594;23.414;2022-09-17T10:22:59;16.88;;;6.55;;
42704;SDS011;28342;42.594;23.414;2022-09-17T10:25:33;14.25;;;6.43;;
42704;SDS011;28342;42.594;23.414;2022-09-17T10:28:00;12.30;;;5.60;;
42704;SDS011;28342;42.594;23.414;2022-09-17T10:30:53;11.40;;;5.25;;
42704;SDS011;28342;42.594;23.414;2022-09-17T10:33:23;14.77;;;6.07;;
42704;SDS011;28342;42.594;23.414;2022-09-17T10:36:10;12.73;;;4.80;;
42704;SDS011;28342;42.594;23.414;2022-09-17T10:38:39;11.95;;;4.97;;
42704;SDS011;28342;42.594;23.414;2022-09-17T10:41:10;11.48;;;4.80;;
42704;SDS011;28342;42.594;23.414;2022-09-17T10:43:38;11.75;;;3.40;;
42704;SDS011;28342;42.594;23.414;2022-09-17T10:46:04;10.02;;;3.10;;
42704;SDS011;28342;42.594;23.414;2022-09-17T10:48:36;7.38;;;2.95;;
42704;SDS011;28342;42.594;23.414;2022-09-17T10:51:06;6.32;;;3.13;;
42704;SDS011;28342;42.594;23.414;2022-09-17T10:53:36;6.45;;;3.28;;
42704;SDS011;28342;42.594;23.414;2022-09-17T10:56:36;9.00;;;3.58;;
42704;SDS011;28342;42.594;23.414;2022-09-17T10:59:21;9.68;;;4.03;;
42704;SDS011;28342;42.594;23.414;2022-09-17T11:11:01;4.75;;;2.63;;
42704;SDS011;28342;42.594;23.414;2022-09-17T11:13:48;7.68;;;2.97;;
42704;SDS011;28342;42.594;23.414;2022-09-17T11:19:25;3.75;;;1.73;;
42704;SDS011;28342;42.594;23.414;2022-09-17T11:21:46;2.70;;;1.65;;
42704;SDS011;28342;42.594;23.414;2022-09-17T11:27:33;2.20;;;1.40;;
42704;SDS011;28342;42.594;23.414;2022-09-17T11:30:23;6.18;;;2.08;;
42704;SDS011;28342;42.594;23.414;2022-09-17T11:36:07;5.00;;;1.30;;
42704;SDS011;28342;42.594;23.414;2022-09-17T11:38:39;5.10;;;1.60;;
42704;SDS011;28342;42.594;23.414;2022-09-17T11:41:19;4.97;;;1.48;;
42704;SDS011;28342;42.594;23.414;2022-09-17T11:46:49;3.72;;;1.48;;
42704;SDS011;28342;42.594;23.414;2022-09-17T11:52:15;5.93;;;2.60;;
42704;SDS011;28342;42.594;23.414;2022-09-17T11:54:50;4.18;;;1.77;;
42704;SDS011;28342;42.594;23.414;2022-09-17T11:57:25;5.53;;;2.05;;
42704;SDS011;28342;42.594;23.414;2022-09-17T12:02:37;2.35;;;1.60;;
42704;SDS011;28342;42.594;23.414;2022-09-17T12:05:20;4.07;;;2.30;;
42704;SDS011;28342;42.594;23.414;2022-09-17T12:10:57;4.70;;;2.60;;
42704;SDS011;28342;42.594;23.414;2022-09-17T12:13:41;8.85;;;3.58;;
42704;SDS011;28342;42.594;23.414;2022-09-17T12:18:48;6.70;;;3.80;;
42704;SDS011;28342;42.594;23.414;2022-09-17T12:21:22;8.25;;;4.00;;
42704;SDS011;28342;42.594;23.414;2022-09-17T12:29:32;8.02;;;3.95;;
42704;SDS011;28342;42.594;23.414;2022-09-17T12:46:02;10.95;;;4.20;;
42704;SDS011;28342;42.594;23.414;2022-09-17T12:59:39;10.82;;;3.22;;
42704;SDS011;28342;42.594;23.414;2022-09-17T13:13:36;14.07;;;3.78;;
42704;SDS011;28342;42.594;23.414;2022-09-17T13:18:54;8.80;;;4.18;;
42704;SDS011;28342;42.594;23.414;2022-09-17T13:24:16;5.45;;;3.20;;
42704;SDS011;28342;42.594;23.414;2022-09-17T13:26:50;5.82;;;3.47;;
42704;SDS011;28342;42.594;23.414;2022-09-17T13:37:30;5.10;;;3.08;;
42704;SDS011;28342;42.594;23.414;2022-09-17T13:39:58;7.55;;;3.35;;
42704;SDS011;28342;42.594;23.414;2022-09-17T13:42:26;8.25;;;3.17;;
42704;SDS011;28342;42.594;23.414;2022-09-17T13:45:04;4.65;;;3.30;;
42704;SDS011;28342;42.594;23.414;2022-09-17T13:47:34;5.47;;;3.10;;
42704;SDS011;28342;42.594;23.414;2022-09-17T13:50:05;5.07;;;3.30;;
42704;SDS011;28342;42.594;23.414;2022-09-17T13:55:05;5.75;;;2.60;;
42704;SDS011;28342;42.594;23.414;2022-09-17T13:57:32;5.28;;;2.70;;
42704;SDS011;28342;42.594;23.414;2022-09-17T14:00:27;3.72;;;2.63;;
42704;SDS011;28342;42.594;23.414;2022-09-17T14:13:54;4.38;;;1.10;;
42704;SDS011;28342;42.594;23.414;2022-09-17T14:19:22;2.90;;;1.33;;
42704;SDS011;28342;42.594;23.414;2022-09-17T14:24:22;5.63;;;1.40;;
42704;SDS011;28342;42.594;23.414;2022-09-17T14:26:56;4.43;;;1.50;;
42704;SDS011;28342;42.594;23.414;2022-09-17T14:32:06;3.85;;;1.35;;
42704;SDS011;28342;42.594;23.414;2022-09-17T14:34:34;9.45;;;1.67;;
42704;SDS011;28342;42.594;23.414;2022-09-17T14:37:00;7.25;;;1.40;;
42704;SDS011;28342;42.594;23.414;2022-09-17T14:39:27;5.15;;;1.20;;
42704;SDS011;28342;42.594;23.414;2022-09-17T14:42:00;5.68;;;1.65;;
42704;SDS011;28342;42.594;23.414;2022-09-17T14:44:28;5.05;;;1.60;;
42704;SDS011;28342;42.594;23.414;2022-09-17T14:47:07;3.10;;;1.20;;
42704;SDS011;28342;42.594;23.414;2022-09-17T14:49:39;5.55;;;2.28;;
42704;SDS011;28342;42.594;23.414;2022-09-17T14:52:24;5.30;;;1.80;;
42704;SDS011;28342;42.594;23.414;2022-09-17T14:55:07;3.63;;;1.65;;
42704;SDS011;28342;42.594;23.414;2022-09-17T14:57:34;3.58;;;1.45;;
42704;SDS011;28342;42.594;23.414;2022-09-17T15:00:00;3.80;;;1.90;;
42704;SDS011;28342;42.594;23.414;2022-09-17T15:02:39;15.55;;;2.67;;
42704;SDS011;28342;42.594;23.414;2022-09-17T15:08:09;4.57;;;1.58;;
42704;SDS011;28342;42.594;23.414;2022-09-17T15:10:54;13.70;;;2.03;;
42704;SDS011;28342;42.594;23.414;2022-09-17T15:13:34;6.45;;;1.83;;
42704;SDS011;28342;42.594;23.414;2022-09-17T15:16:09;5.25;;;1.23;;
42704;SDS011;28342;42.594;23.414;2022-09-17T15:18:47;5.00;;;1.75;;
42704;SDS011;28342;42.594;23.414;2022-09-17T15:21:33;3.97;;;1.52;;
42704;SDS011;28342;42.594;23.414;2022-09-17T15:26:46;2.95;;;1.30;;
42704;SDS011;28342;42.594;23.414;2022-09-17T15:29:16;8.07;;;1.33;;
42704;SDS011;28342;42.594;23.414;2022-09-17T15:31:45;5.90;;;1.65;;
42704;SDS011;28342;42.594;23.414;2022-09-17T15:34:11;5.45;;;1.48;;
42704;SDS011;28342;42.594;23.414;2022-09-17T15:36:36;7.03;;;1.90;;
42704;SDS011;28342;42.594;23.414;2022-09-17T15:39:15;3.33;;;1.60;;
42704;SDS011;28342;42.594;23.414;2022-09-17T15:41:55;2.55;;;1.55;;
42704;SDS011;28342;42.594;23.414;2022-09-17T15:46:48;4.60;;;1.60;;
42704;SDS011;28342;42.594;23.414;2022-09-17T15:51:54;9.00;;;1.85;;
42704;SDS011;28342;42.594;23.414;2022-09-17T15:54:30;6.32;;;1.58;;
42704;SDS011;28342;42.594;23.414;2022-09-17T15:56:56;2.85;;;1.48;;
42704;SDS011;28342;42.594;23.414;2022-09-17T15:59:28;3.22;;;1.40;;
42704;SDS011;28342;42.594;23.414;2022-09-17T16:01:58;3.50;;;1.52;;
42704;SDS011;28342;42.594;23.414;2022-09-17T16:07:00;3.05;;;1.55;;
42704;SDS011;28342;42.594;23.414;2022-09-17T16:12:12;3.95;;;1.50;;
42704;SDS011;28342;42.594;23.414;2022-09-17T16:14:46;5.95;;;1.50;;
42704;SDS011;28342;42.594;23.414;2022-09-17T16:17:42;4.63;;;1.40;;
42704;SDS011;28342;42.594;23.414;2022-09-17T16:20:19;4.43;;;1.40;;
42704;SDS011;28342;42.594;23.414;2022-09-17T16:22:47;2.95;;;1.50;;
42704;SDS011;28342;42.594;23.414;2022-09-17T16:25:14;3.83;;;1.50;;
42704;SDS011;28342;42.594;23.414;2022-09-17T16:28:02;3.70;;;1.58;;
42704;SDS011;28342;42.594;23.414;2022-09-17T16:30:28;4.03;;;1.60;;
42704;SDS011;28342;42.594;23.414;2022-09-17T16:32:53;4.13;;;1.25;;
42704;SDS011;28342;42.594;23.414;2022-09-17T16:35:20;5.13;;;1.70;;
42704;SDS011;28342;42.594;23.414;2022-09-17T16:37:48;4.85;;;1.20;;
42704;SDS011;28342;42.594;23.414;2022-09-17T16:40:15;3.63;;;1.58;;
42704;SDS011;28342;42.594;23.414;2022-09-17T16:42:41;6.18;;;1.42;;
42704;SDS011;28342;42.594;23.414;2022-09-17T16:45:07;9.77;;;2.17;;
42704;SDS011;28342;42.594;23.414;2022-09-17T16:47:33;4.25;;;1.80;;
42704;SDS011;28342;42.594;23.414;2022-09-17T16:50:01;5.80;;;2.30;;
42704;SDS011;28342;42.594;23.414;2022-09-17T16:52:32;5.53;;;2.05;;
42704;SDS011;28342;42.594;23.414;2022-09-17T16:54:58;7.43;;;2.22;;
42704;SDS011;28342;42.594;23.414;2022-09-17T16:57:24;5.47;;;1.80;;
42704;SDS011;28342;42.594;23.414;2022-09-17T16:59:49;5.93;;;2.05;;
42704;SDS011;28342;42.594;23.414;2022-09-17T17:02:14;1.63;;;1.30;;
42704;SDS011;28342;42.594;23.414;2022-09-17T17:04:40;5.65;;;1.80;;
42704;SDS011;28342;42.594;23.414;2022-09-17T17:07:05;2.85;;;1.55;;
42704;SDS011;28342;42.594;23.414;2022-09-17T17:09:30;5.05;;;1.98;;
42704;SDS011;28342;42.594;23.414;2022-09-17T17:11:56;7.30;;;2.17;;
42704;SDS011;28342;42.594;23.414;2022-09-17T17:14:21;8.88;;;2.75;;
42704;SDS011;28342;42.594;23.414;2022-09-17T17:16:46;2.97;;;1.92;;
42704;SDS011;28342;42.594;23.414;2022-09-17T17:19:12;3.55;;;1.83;;
42704;SDS011;28342;42.594;23.414;2022-09-17T17:21:37;3.72;;;2.05;;
42704;SDS011;28342;42.594;23.414;2022-09-17T17:24:03;4.63;;;2.30;;
42704;SDS011;28342;42.594;23.414;2022-09-17T17:26:30;4.85;;;1.90;;
42704;SDS011;28342;42.594;23.414;2022-09-17T17:28:56;5.47;;;1.90;;
42704;SDS011;28342;42.594;23.414;2022-09-17T17:31:21;7.28;;;2.17;;
42704;SDS011;28342;42.594;23.414;2022-09-17T17:33:47;9.00;;;1.85;;
42704;SDS011;28342;42.594;23.414;2022-09-17T17:36:14;5.32;;;1.80;;
42704;SDS011;28342;42.594;23.414;2022-09-17T17:38:42;5.60;;;1.77;;
42704;SDS011;28342;42.594;23.414;2022-09-17T17:41:11;5.40;;;1.75;;
42704;SDS011;28342;42.594;23.414;2022-09-17T17:43:41;7.45;;;2.55;;
42704;SDS011;28342;42.594;23.414;2022-09-17T17:46:08;5.00;;;1.50;;
42704;SDS011;28342;42.594;23.414;2022-09-17T17:48:35;9.00;;;1.70;;
42704;SDS011;28342;42.594;23.414;2022-09-17T17:51:04;4.55;;;1.77;;
42704;SDS011;28342;42.594;23.414;2022-09-17T17:53:31;7.65;;;2.30;;
42704;SDS011;28342;42.594;23.414;2022-09-17T17:55:58;4.78;;;2.00;;
42704;SDS011;28342;42.594;23.414;2022-09-17T17:58:25;2.65;;;1.50;;
42704;SDS011;28342;42.594;23.414;2022-09-17T18:00:51;4.78;;;1.38;;